BIKF

Keflavik International Airport

Reykjavík, Iceland

BIKF 221800Z 04006KT 010V070 9999 FEW028 SCT180 14/07 Q1019

Observed Flight Rules
Aug-22 @ 18:00 UTC (49 minutes ago)
 
Visual Flight Rules
Wind Visibility Clouds
40° at 6 knots 10,000+ meters
  • Few at 2,800' AGL
  • Scattered at 18,000' AGL
Temperatures Readings
Current 14°C / 57°F
Dewpoint 7°C / 45°F
Humidity 63%
Altimeter 30.09" Hg
Pressure 1019 hPa
Elevation 54
Observed Flight Rules
Aug-22 @ 18:00 UTC
(49 minutes ago)
 
VFR
Wind Visibility
40° at 6 knots 10,000+ meters
Clouds
  • Few at 2,800' AGL
  • Scattered at 18,000' AGL
Temperature Dewpoint
14°C / 57°F 7°C / 45°F
Humidity Altimeter Pressure
63% 30.09" Hg 1019 hPa